CMP293 SUMU-SBPA
Flight info
| Callsign | CMP293 |
|---|---|
| Flight time | 0h 35m |
| Altitude | 35000 |
| Route | MOLBI UM540 ILTOG |
| Aircraft | B38M/M-SDE1FGHILORVWXY/HB1 |
Departure
| Time | 2026-04-25 00:15 |
|---|---|
| Airport | Carrasco General Cesáreo L. Berisso International Airport (SUMU) |
Arrival
| Time | 2026-04-25 00:51 |
|---|---|
| Airport | Porto Alegre-Salgado Filho International Airport (SBPA) |
| Time | Latitude | Longitude | Altitude | Speed | Heading |
|---|---|---|---|---|---|
| 2026-04-25 00:14 | -34.84109 | -56.03523 | 70 ft | 0 kts | 53° |
| 2026-04-25 00:15 | -34.83964 | -56.03285 | 69 ft | 84 kts | 53° |
| 2026-04-25 00:15 | -34.83424 | -56.02401 | 100 ft | 174 kts | 53° |
| 2026-04-25 00:15 | -34.82655 | -56.01160 | 1152 ft | 179 kts | 52° |
| 2026-04-25 00:16 | -34.81778 | -56.00041 | 2294 ft | 197 kts | 36° |
| 2026-04-25 00:16 | -34.80606 | -55.99023 | 3382 ft | 215 kts | 36° |
| 2026-04-25 00:16 | -32.66063 | -53.75732 | 35001 ft | 456 kts | 40° |
| 2026-04-25 00:16 | -32.65409 | -53.75067 | 34810 ft | 320 kts | 40° |
| 2026-04-25 00:17 | -32.63670 | -53.73309 | 33846 ft | 337 kts | 40° |
| 2026-04-25 00:17 | -32.61917 | -53.71481 | 33599 ft | 327 kts | 38° |
| 2026-04-25 00:17 | -32.60215 | -53.69891 | 33946 ft | 297 kts | 39° |
| 2026-04-25 00:17 | -32.58689 | -53.68320 | 33746 ft | 289 kts | 42° |
| 2026-04-25 00:18 | -32.57135 | -53.66709 | 32826 ft | 307 kts | 39° |
| 2026-04-25 00:18 | -32.55441 | -53.65057 | 32015 ft | 320 kts | 40° |
| 2026-04-25 00:18 | -32.53790 | -53.63360 | 31926 ft | 305 kts | 40° |
| 2026-04-25 00:18 | -32.52227 | -53.61799 | 32025 ft | 285 kts | 39° |
| 2026-04-25 00:19 | -32.50714 | -53.60290 | 31564 ft | 287 kts | 40° |
| 2026-04-25 00:19 | -32.49151 | -53.58708 | 30745 ft | 302 kts | 39° |
| 2026-04-25 00:19 | -32.47513 | -53.57158 | 30278 ft | 303 kts | 38° |
| 2026-04-25 00:19 | -32.45978 | -53.55539 | 30228 ft | 287 kts | 45° |
| 2026-04-25 00:20 | -32.44623 | -53.53986 | 30061 ft | 279 kts | 41° |
| 2026-04-25 00:20 | -32.18338 | -53.25593 | 35001 ft | 315 kts | 42° |
| 2026-04-25 00:20 | -32.17424 | -53.24601 | 34890 ft | 314 kts | 42° |
| 2026-04-25 00:20 | -32.15822 | -53.22892 | 34596 ft | 308 kts | 42° |
| 2026-04-25 00:21 | -32.14222 | -53.21167 | 34114 ft | 309 kts | 42° |
| 2026-04-25 00:21 | -32.12630 | -53.19453 | 33628 ft | 310 kts | 42° |
| 2026-04-25 00:21 | -32.11063 | -53.17769 | 33248 ft | 307 kts | 42° |
| 2026-04-25 00:21 | -32.09498 | -53.16087 | 32919 ft | 303 kts | 41° |
| 2026-04-25 00:22 | -32.07944 | -53.14428 | 32521 ft | 301 kts | 42° |
| 2026-04-25 00:22 | -32.06406 | -53.12768 | 32122 ft | 299 kts | 42° |
| 2026-04-25 00:22 | -32.04864 | -53.11122 | 31720 ft | 298 kts | 42° |
| 2026-04-25 00:22 | -32.03339 | -53.09484 | 31335 ft | 296 kts | 42° |
| 2026-04-25 00:23 | -32.01820 | -53.07856 | 30956 ft | 294 kts | 41° |
| 2026-04-25 00:23 | -32.00310 | -53.06245 | 30581 ft | 292 kts | 42° |
| 2026-04-25 00:23 | -31.98808 | -53.04628 | 30229 ft | 299 kts | 42° |
| 2026-04-25 00:23 | -31.97206 | -53.02925 | 30269 ft | 318 kts | 42° |
| 2026-04-25 00:24 | -31.95524 | -53.01118 | 30376 ft | 337 kts | 42° |
| 2026-04-25 00:24 | -31.93734 | -52.99208 | 30444 ft | 358 kts | 42° |
| 2026-04-25 00:24 | -31.91836 | -52.97180 | 30484 ft | 379 kts | 42° |
| 2026-04-25 00:24 | -31.89825 | -52.95035 | 30395 ft | 404 kts | 42° |
| 2026-04-25 00:25 | -31.87662 | -52.92727 | 30247 ft | 430 kts | 42° |
| 2026-04-25 00:25 | -31.85388 | -52.90303 | 30220 ft | 453 kts | 42° |
| 2026-04-25 00:25 | -31.82997 | -52.87757 | 30197 ft | 474 kts | 42° |
| 2026-04-25 00:25 | -31.80498 | -52.85095 | 30180 ft | 495 kts | 42° |
| 2026-04-25 00:26 | -31.77902 | -52.82337 | 30166 ft | 506 kts | 42° |
| 2026-04-25 00:26 | -31.75291 | -52.79557 | 30150 ft | 507 kts | 41° |
| 2026-04-25 00:26 | -31.70063 | -52.74006 | 30143 ft | 507 kts | 41° |
| 2026-04-25 00:27 | -31.64909 | -52.68427 | 30099 ft | 499 kts | 43° |
| 2026-04-25 00:27 | -31.62258 | -52.65818 | 29485 ft | 505 kts | 39° |
| 2026-04-25 00:27 | -31.59679 | -52.63001 | 28875 ft | 507 kts | 43° |
| 2026-04-25 00:28 | -31.56972 | -52.60363 | 28312 ft | 508 kts | 34° |
| 2026-04-25 00:28 | -31.54043 | -52.58049 | 27708 ft | 502 kts | 30° |
| 2026-04-25 00:28 | -31.51087 | -52.56020 | 27102 ft | 489 kts | 30° |
| 2026-04-25 00:28 | -31.48196 | -52.54078 | 26508 ft | 470 kts | 25° |
| 2026-04-25 00:29 | -31.45340 | -52.52372 | 25879 ft | 453 kts | 28° |
| 2026-04-25 00:29 | -31.42613 | -52.50586 | 25295 ft | 452 kts | 29° |
| 2026-04-25 00:29 | -31.39778 | -52.48863 | 24712 ft | 465 kts | 25° |
| 2026-04-25 00:29 | -31.36817 | -52.47224 | 24124 ft | 477 kts | 26° |
| 2026-04-25 00:30 | -31.33878 | -52.45323 | 23527 ft | 488 kts | 28° |
| 2026-04-25 00:30 | -31.30822 | -52.43518 | 22939 ft | 497 kts | 25° |
| 2026-04-25 00:30 | -31.27766 | -52.41551 | 22313 ft | 505 kts | 28° |
| 2026-04-25 00:30 | -31.24622 | -52.39751 | 21736 ft | 494 kts | 21° |
| 2026-04-25 00:31 | -31.21589 | -52.38128 | 21039 ft | 469 kts | 27° |
| 2026-04-25 00:31 | -31.18862 | -52.36205 | 20395 ft | 447 kts | 31° |
| 2026-04-25 00:31 | -31.16212 | -52.34459 | 19813 ft | 427 kts | 25° |
| 2026-04-25 00:31 | -31.13604 | -52.32938 | 19200 ft | 411 kts | 28° |
| 2026-04-25 00:32 | -31.11133 | -52.31368 | 18593 ft | 398 kts | 27° |
| 2026-04-25 00:32 | -31.08695 | -52.29948 | 17991 ft | 386 kts | 27° |
| 2026-04-25 00:32 | -31.06358 | -52.28490 | 17387 ft | 376 kts | 27° |
| 2026-04-25 00:32 | -31.04087 | -52.27143 | 16791 ft | 367 kts | 27° |
| 2026-04-25 00:33 | -31.01825 | -52.25753 | 16181 ft | 359 kts | 28° |
| 2026-04-25 00:33 | -30.99666 | -52.24430 | 15591 ft | 352 kts | 27° |
| 2026-04-25 00:33 | -30.97514 | -52.23125 | 14992 ft | 346 kts | 27° |
| 2026-04-25 00:33 | -30.95398 | -52.21835 | 14391 ft | 340 kts | 27° |
| 2026-04-25 00:34 | -30.93314 | -52.20572 | 13794 ft | 335 kts | 27° |
| 2026-04-25 00:34 | -30.91255 | -52.19316 | 13193 ft | 331 kts | 27° |
| 2026-04-25 00:34 | -30.89222 | -52.18089 | 12594 ft | 327 kts | 27° |
| 2026-04-25 00:34 | -30.87220 | -52.16869 | 11997 ft | 323 kts | 27° |
| 2026-04-25 00:35 | -30.85234 | -52.15669 | 11398 ft | 320 kts | 27° |
| 2026-04-25 00:35 | -30.83268 | -52.14476 | 10799 ft | 317 kts | 27° |
| 2026-04-25 00:35 | -30.81318 | -52.13295 | 10349 ft | 309 kts | 27° |
| 2026-04-25 00:35 | -30.79454 | -52.12167 | 10152 ft | 294 kts | 27° |
| 2026-04-25 00:36 | -30.77692 | -52.11097 | 10060 ft | 277 kts | 27° |
| 2026-04-25 00:36 | -30.76035 | -52.10101 | 10016 ft | 260 kts | 27° |
| 2026-04-25 00:36 | -30.74485 | -52.09157 | 9990 ft | 243 kts | 27° |
| 2026-04-25 00:36 | -30.73032 | -52.08284 | 9975 ft | 227 kts | 27° |
| 2026-04-25 00:37 | -30.71684 | -52.07471 | 9960 ft | 210 kts | 27° |
| 2026-04-25 00:37 | -30.70437 | -52.06708 | 9905 ft | 196 kts | 27° |
| 2026-04-25 00:37 | -30.69192 | -52.05915 | 9307 ft | 217 kts | 30° |
| 2026-04-25 00:37 | -30.67773 | -52.05098 | 8655 ft | 239 kts | 23° |
| 2026-04-25 00:38 | -30.66210 | -52.04239 | 7978 ft | 258 kts | 28° |
| 2026-04-25 00:38 | -30.64593 | -52.02986 | 7323 ft | 303 kts | 37° |
| 2026-04-25 00:38 | -30.62626 | -52.01703 | 6624 ft | 347 kts | 24° |
| 2026-04-25 00:38 | -30.60276 | -52.00567 | 5941 ft | 384 kts | 22° |
| 2026-04-25 00:39 | -30.57821 | -51.99176 | 5404 ft | 407 kts | 27° |
| 2026-04-25 00:39 | -30.55306 | -51.97625 | 5197 ft | 411 kts | 25° |
| 2026-04-25 00:39 | -30.52774 | -51.96060 | 5078 ft | 412 kts | 27° |
| 2026-04-25 00:39 | -30.50254 | -51.94491 | 5047 ft | 411 kts | 24° |
| 2026-04-25 00:40 | -30.47687 | -51.93038 | 4993 ft | 410 kts | 28° |
| 2026-04-25 00:40 | -30.45395 | -51.91274 | 4921 ft | 378 kts | 34° |
| 2026-04-25 00:40 | -30.43520 | -51.89357 | 4864 ft | 344 kts | 47° |
| 2026-04-25 00:40 | -30.42136 | -51.87254 | 4913 ft | 313 kts | 51° |
| 2026-04-25 00:41 | -30.40756 | -51.85442 | 4948 ft | 288 kts | 46° |
| 2026-04-25 00:41 | -30.39485 | -51.83759 | 4963 ft | 267 kts | 50° |
| 2026-04-25 00:41 | -30.38327 | -51.82171 | 4973 ft | 249 kts | 48° |
| 2026-04-25 00:41 | -30.37213 | -51.80717 | 4976 ft | 234 kts | 49° |
| 2026-04-25 00:42 | -30.36186 | -51.79340 | 4967 ft | 219 kts | 50° |
| 2026-04-25 00:42 | -30.35237 | -51.77992 | 4992 ft | 221 kts | 66° |
| 2026-04-25 00:42 | -30.34945 | -51.76208 | 5148 ft | 238 kts | 97° |
| 2026-04-25 00:42 | -30.34845 | -51.74201 | 5040 ft | 266 kts | 71° |
| 2026-04-25 00:43 | -30.33719 | -51.72412 | 5047 ft | 291 kts | 37° |
| 2026-04-25 00:43 | -30.31901 | -51.71181 | 5093 ft | 315 kts | 28° |
| 2026-04-25 00:43 | -30.29987 | -51.69753 | 5059 ft | 339 kts | 34° |
| 2026-04-25 00:43 | -30.28038 | -51.68065 | 5031 ft | 360 kts | 37° |
| 2026-04-25 00:44 | -30.26116 | -51.66100 | 4982 ft | 379 kts | 46° |
| 2026-04-25 00:44 | -30.24459 | -51.63719 | 4991 ft | 367 kts | 45° |
| 2026-04-25 00:44 | -30.22642 | -51.61858 | 4995 ft | 333 kts | 36° |
| 2026-04-25 00:44 | -30.21144 | -51.59945 | 4871 ft | 311 kts | 51° |
| 2026-04-25 00:45 | -30.19958 | -51.57971 | 4915 ft | 288 kts | 53° |
| 2026-04-25 00:45 | -30.18963 | -51.55874 | 4993 ft | 310 kts | 65° |
| 2026-04-25 00:45 | -30.17841 | -51.53658 | 5025 ft | 331 kts | 49° |
| 2026-04-25 00:45 | -30.16165 | -51.51779 | 5028 ft | 328 kts | 35° |
| 2026-04-25 00:46 | -30.14372 | -51.50316 | 4363 ft | 315 kts | 36° |
| 2026-04-25 00:46 | -30.12928 | -51.48404 | 3557 ft | 313 kts | 53° |
| 2026-04-25 00:46 | -30.11465 | -51.46083 | 3253 ft | 279 kts | 52° |
| 2026-04-25 00:47 | -30.10450 | -51.44519 | 2872 ft | 271 kts | 59° |
| 2026-04-25 00:47 | -30.09462 | -51.42757 | 2530 ft | 251 kts | 54° |
| 2026-04-25 00:47 | -30.08360 | -51.41275 | 2123 ft | 242 kts | 49° |
| 2026-04-25 00:47 | -30.07209 | -51.39932 | 2031 ft | 233 kts | 48° |
| 2026-04-25 00:48 | -30.06100 | -51.38615 | 2036 ft | 231 kts | 51° |
| 2026-04-25 00:48 | -30.05424 | -51.37670 | 2037 ft | 230 kts | 53° |
| 2026-04-25 00:48 | -30.04220 | -51.35756 | 2302 ft | 210 kts | 51° |
| 2026-04-25 00:48 | -30.03256 | -51.34513 | 2028 ft | 213 kts | 47° |
| 2026-04-25 00:49 | -30.02262 | -51.33108 | 1598 ft | 231 kts | 53° |
| 2026-04-25 00:49 | -30.01431 | -51.31641 | 1570 ft | 212 kts | 63° |
| 2026-04-25 00:49 | -30.01059 | -51.30622 | 1408 ft | 198 kts | 65° |
| 2026-04-25 00:49 | -30.00316 | -51.28852 | 1196 ft | 173 kts | 63° |
| 2026-04-25 00:50 | -29.99864 | -51.27575 | 955 ft | 173 kts | 72° |
| 2026-04-25 00:50 | -29.99665 | -51.26681 | 897 ft | 167 kts | 77° |
| 2026-04-25 00:50 | -29.99487 | -51.25380 | 703 ft | 164 kts | 82° |
| 2026-04-25 00:50 | -29.99392 | -51.24090 | 582 ft | 163 kts | 93° |
| 2026-04-25 00:51 | -29.99752 | -51.22708 | 47 ft | 214 kts | 134° |
| 2026-04-25 00:51 | -29.99762 | -51.22695 | 31 ft | 0 kts | 134° |